createdAt,value
2023-04-11T00:00:48.037Z,99.90
2023-04-11T00:03:17.110Z,99.90
2023-04-11T00:05:46.228Z,99.90
2023-04-11T00:08:16.783Z,99.90
2023-04-11T00:10:45.924Z,99.90
2023-04-11T00:13:15.017Z,99.90
2023-04-11T00:15:43.664Z,99.90
2023-04-11T00:18:12.733Z,99.90
2023-04-11T00:20:41.372Z,99.90
2023-04-11T00:23:09.974Z,99.90
2023-04-11T00:25:40.369Z,99.90
2023-04-11T00:28:09.282Z,99.90
2023-04-11T00:30:37.954Z,99.90
2023-04-11T00:33:06.582Z,99.90
2023-04-11T00:35:38.000Z,99.90
2023-04-11T00:38:06.982Z,99.90
2023-04-11T00:40:35.617Z,99.90
2023-04-11T00:43:05.824Z,99.90
2023-04-11T00:45:34.948Z,99.90
2023-04-11T00:48:03.839Z,99.90
2023-04-11T00:50:32.840Z,99.90
2023-04-11T00:53:01.470Z,99.90
2023-04-11T00:55:33.173Z,99.90
2023-04-11T00:58:02.997Z,99.90
2023-04-11T01:00:35.441Z,99.90
2023-04-11T01:03:04.299Z,99.90
2023-04-11T01:05:34.675Z,99.90
2023-04-11T01:08:03.936Z,99.90
2023-04-11T01:10:33.275Z,99.90
2023-04-11T01:13:02.724Z,99.90
2023-04-11T01:15:32.970Z,99.90
2023-04-11T01:18:02.499Z,99.90
2023-04-11T01:20:31.958Z,99.90
2023-04-11T01:23:02.215Z,99.90
2023-04-11T01:25:32.340Z,99.90
2023-04-11T01:28:01.262Z,99.90
2023-04-11T01:30:29.892Z,99.90
2023-04-11T01:32:58.486Z,99.90
2023-04-11T01:35:27.121Z,99.90
2023-04-11T01:37:55.832Z,99.90
2023-04-11T01:40:24.905Z,99.90
2023-04-11T01:42:55.929Z,99.90
2023-04-11T01:45:24.838Z,99.90
2023-04-11T01:47:54.727Z,99.90
2023-04-11T01:50:23.401Z,99.90
2023-04-11T01:52:53.063Z,99.90
2023-04-11T01:55:21.744Z,99.90
2023-04-11T01:57:50.485Z,99.90
2023-04-11T02:00:24.574Z,99.90
2023-04-11T02:02:53.248Z,99.90
2023-04-11T02:05:22.300Z,99.90
2023-04-11T02:07:50.855Z,99.90
2023-04-11T02:10:19.617Z,99.90
2023-04-11T02:12:48.329Z,99.90
2023-04-11T02:15:16.998Z,99.90
2023-04-11T02:17:47.104Z,99.90
2023-04-11T02:20:17.010Z,99.90
2023-04-11T02:22:45.564Z,99.90
2023-04-11T02:25:14.482Z,99.90
2023-04-11T02:27:44.387Z,99.90
2023-04-11T02:30:13.277Z,99.90
2023-04-11T02:32:41.899Z,99.90
2023-04-11T02:35:12.332Z,99.90
2023-04-11T02:37:41.157Z,99.90
2023-04-11T02:40:10.840Z,99.90
2023-04-11T02:42:40.679Z,99.90
2023-04-11T02:45:10.609Z,99.90
2023-04-11T02:47:39.444Z,99.90
2023-04-11T02:50:09.494Z,99.90
2023-04-11T02:52:42.336Z,99.90
2023-04-11T02:55:11.500Z,99.90
2023-04-11T02:57:40.199Z,99.90
2023-04-11T03:00:10.310Z,99.90
2023-04-11T03:02:39.247Z,99.90
2023-04-11T03:05:09.380Z,99.90
2023-04-11T03:07:40.787Z,99.90
2023-04-11T03:10:10.338Z,99.90
2023-04-11T03:12:39.291Z,99.90
2023-04-11T03:15:08.776Z,99.90
2023-04-11T03:17:37.380Z,99.90
2023-04-11T03:20:08.702Z,99.90
2023-04-11T03:22:39.271Z,99.90
2023-04-11T03:25:08.956Z,99.90
2023-04-11T03:27:37.500Z,99.90
2023-04-11T03:30:06.802Z,99.90
2023-04-11T03:32:35.715Z,99.90
2023-04-11T03:35:04.290Z,99.90
2023-04-11T03:37:32.889Z,99.90
2023-04-11T03:40:03.956Z,99.90
2023-04-11T03:42:32.640Z,99.90
2023-04-11T03:45:01.189Z,99.90
2023-04-11T03:47:30.083Z,99.90
2023-04-11T03:49:58.628Z,99.90
2023-04-11T03:52:27.265Z,99.90
2023-04-11T03:54:55.825Z,99.90
2023-04-11T03:57:27.558Z,99.90
2023-04-11T03:59:56.861Z,99.90
2023-04-11T04:02:25.659Z,99.90
2023-04-11T04:04:58.946Z,99.90
2023-04-11T04:07:27.716Z,99.90
2023-04-11T04:09:56.467Z,99.90
2023-04-11T04:12:27.251Z,99.90
2023-04-11T04:14:55.873Z,99.90
2023-04-11T04:17:24.991Z,99.90
2023-04-11T04:19:53.609Z,99.90
2023-04-11T04:22:22.487Z,99.90
2023-04-11T04:24:51.921Z,99.90
2023-04-11T04:27:20.418Z,99.90
2023-04-11T04:29:58.452Z,99.90
2023-04-11T04:32:33.328Z,99.90
2023-04-11T04:35:02.670Z,99.90
2023-04-11T04:37:31.324Z,99.90
2023-04-11T04:40:07.771Z,99.90
2023-04-11T04:42:36.666Z,99.90
2023-04-11T04:45:07.734Z,99.90
2023-04-11T04:47:38.627Z,99.90
2023-04-11T04:50:08.275Z,99.90
2023-04-11T04:52:36.782Z,99.90
2023-04-11T04:55:06.437Z,99.90
2023-04-11T04:57:35.003Z,99.90
2023-04-11T05:00:06.945Z,99.90
2023-04-11T05:02:38.017Z,99.90
2023-04-11T05:05:08.184Z,99.90
2023-04-11T05:07:37.481Z,99.90
2023-04-11T05:10:06.794Z,99.90
2023-04-11T05:12:35.487Z,99.90
2023-04-11T05:15:04.501Z,99.90
2023-04-11T05:17:33.102Z,99.90
2023-04-11T05:20:05.829Z,99.90
2023-04-11T05:22:34.314Z,99.90
2023-04-11T05:25:03.800Z,99.90
2023-04-11T05:27:32.539Z,99.90
2023-04-11T05:30:01.745Z,99.90
2023-04-11T05:32:30.235Z,99.90
2023-04-11T05:34:59.539Z,99.90
2023-04-11T05:37:31.493Z,99.90
2023-04-11T05:40:00.406Z,99.90
2023-04-11T05:42:29.000Z,99.90
2023-04-11T05:44:57.902Z,99.90
2023-04-11T05:47:26.514Z,99.90
2023-04-11T05:49:55.037Z,99.90
2023-04-11T05:52:23.696Z,99.90
2023-04-11T05:54:54.037Z,99.90
2023-04-11T05:57:23.793Z,99.90
2023-04-11T05:59:53.252Z,99.90
2023-04-11T06:02:21.942Z,99.90
2023-04-11T06:04:51.280Z,99.90
2023-04-11T06:07:19.985Z,99.90
2023-04-11T06:09:49.225Z,99.90
2023-04-11T06:12:19.304Z,99.90
2023-04-11T06:14:47.949Z,99.90
2023-04-11T06:17:17.181Z,99.90
2023-04-11T06:19:46.225Z,99.90
2023-04-11T06:22:14.822Z,99.90
2023-04-11T06:24:43.482Z,99.90
2023-04-11T06:27:12.498Z,99.90
2023-04-11T06:29:44.302Z,99.90
2023-04-11T06:32:13.634Z,99.90
2023-04-11T06:34:42.269Z,99.90
2023-04-11T06:37:11.178Z,99.90
2023-04-11T06:39:39.868Z,99.90
2023-04-11T06:42:08.757Z,99.90
2023-04-11T06:44:37.379Z,99.90
2023-04-11T06:47:07.632Z,99.90
2023-04-11T06:49:36.154Z,99.90
2023-04-11T06:52:05.097Z,99.90
2023-04-11T06:54:33.751Z,99.90
2023-04-11T06:57:02.726Z,99.90
2023-04-11T06:59:31.540Z,99.90
2023-04-11T07:02:00.809Z,99.90
2023-04-11T07:04:31.396Z,99.90
2023-04-11T07:07:00.250Z,99.90
2023-04-11T07:09:29.005Z,99.90
2023-04-11T07:11:58.116Z,99.90
2023-04-11T07:14:27.374Z,99.90
2023-04-11T07:16:55.945Z,99.90
2023-04-11T07:19:24.603Z,99.90
2023-04-11T07:21:54.652Z,99.90
2023-04-11T07:24:23.263Z,99.90
2023-04-11T07:26:53.533Z,99.90
2023-04-11T07:29:22.137Z,99.90
2023-04-11T07:31:51.698Z,99.90
2023-04-11T07:34:20.231Z,99.90
2023-04-11T07:36:50.155Z,99.90
2023-04-11T07:39:20.217Z,99.90
2023-04-11T07:41:49.004Z,99.90
2023-04-11T07:44:17.624Z,99.90
2023-04-11T07:46:46.620Z,99.90
2023-04-11T07:49:15.245Z,99.90
2023-04-11T07:51:44.068Z,99.90
2023-04-11T07:54:12.858Z,99.90
2023-04-11T07:56:43.394Z,99.90
2023-04-11T07:59:16.131Z,99.90
2023-04-11T08:01:44.887Z,99.90
2023-04-11T08:04:14.248Z,99.90
2023-04-11T08:06:43.741Z,99.90
2023-04-11T08:09:12.868Z,99.90
2023-04-11T08:11:42.846Z,99.90
2023-04-11T08:14:11.455Z,99.90
2023-04-11T08:16:40.058Z,99.90
2023-04-11T08:19:11.613Z,99.90
2023-04-11T08:21:40.212Z,99.90
2023-04-11T08:24:09.544Z,99.90
2023-04-11T08:26:38.431Z,99.90
2023-04-11T08:29:11.393Z,99.90
2023-04-11T08:31:44.747Z,99.90
2023-04-11T08:34:13.934Z,99.90
2023-04-11T08:36:42.816Z,99.90
2023-04-11T08:39:12.161Z,99.90
2023-04-11T08:41:41.058Z,99.90
2023-04-11T08:44:13.615Z,99.90
2023-04-11T08:46:43.809Z,99.90
2023-04-11T08:49:12.915Z,99.90
2023-04-11T08:51:45.280Z,99.90
2023-04-11T08:54:14.288Z,99.90
2023-04-11T08:56:44.163Z,99.90
2023-04-11T08:59:14.515Z,99.90
2023-04-11T09:01:43.291Z,99.90
2023-04-11T09:04:12.120Z,99.90
2023-04-11T09:06:42.924Z,99.90
2023-04-11T09:09:30.199Z,99.90
2023-04-11T09:11:59.055Z,99.90
2023-04-11T09:14:29.212Z,99.90
2023-04-11T09:17:00.693Z,99.90
2023-04-11T09:19:30.710Z,99.90
2023-04-11T09:22:01.255Z,99.90
2023-04-11T09:24:32.039Z,99.90
2023-04-11T09:27:09.324Z,99.90
2023-04-11T09:29:41.089Z,99.90
2023-04-11T09:32:09.695Z,99.90
2023-04-11T09:34:40.116Z,99.90
2023-04-11T09:37:11.094Z,99.90
2023-04-11T09:39:40.238Z,99.90
2023-04-11T09:42:26.723Z,99.90
2023-04-11T09:44:56.879Z,99.90
2023-04-11T09:47:26.131Z,99.90
2023-04-11T09:49:55.613Z,99.90
2023-04-11T09:52:24.314Z,99.90
2023-04-11T09:54:53.210Z,99.90
2023-04-11T09:57:24.469Z,99.90
2023-04-11T09:59:57.930Z,99.90
2023-04-11T10:02:26.912Z,99.90
2023-04-11T10:04:55.633Z,99.90
2023-04-11T10:07:24.972Z,99.90
2023-04-11T10:09:54.189Z,99.90
2023-04-11T10:12:33.206Z,99.90
2023-04-11T10:15:09.881Z,99.90
2023-04-11T10:17:40.023Z,99.90
2023-04-11T10:20:46.163Z,99.90
2023-04-11T10:23:16.688Z,99.90
2023-04-11T10:25:56.795Z,99.90
2023-04-11T10:28:33.863Z,99.90
2023-04-11T10:31:06.025Z,99.90
2023-04-11T10:33:36.270Z,99.90
2023-04-11T10:36:07.045Z,99.90
2023-04-11T10:38:50.190Z,99.90
2023-04-11T10:41:36.748Z,99.90
2023-04-11T10:44:16.739Z,99.90
2023-04-11T10:46:54.868Z,99.90
2023-04-11T10:49:37.851Z,99.90
2023-04-11T10:52:23.251Z,99.90
2023-04-11T10:54:53.795Z,99.90
2023-04-11T10:57:23.421Z,99.90
2023-04-11T10:59:59.886Z,99.90
2023-04-11T11:02:39.820Z,99.90
2023-04-11T11:05:20.692Z,99.90
2023-04-11T11:07:54.236Z,99.90
2023-04-11T11:10:43.602Z,99.90
2023-04-11T11:13:12.527Z,99.90
2023-04-11T11:15:48.050Z,99.90
2023-04-11T11:18:19.620Z,99.90
2023-04-11T11:20:48.731Z,99.90
2023-04-11T11:23:18.420Z,99.90
2023-04-11T11:25:55.228Z,99.90
2023-04-11T11:28:24.525Z,99.90
2023-04-11T11:30:55.532Z,99.90
2023-04-11T11:33:27.110Z,99.90
2023-04-11T11:36:00.159Z,99.90
2023-04-11T11:38:30.641Z,99.90
2023-04-11T11:41:00.262Z,99.90
2023-04-11T11:43:29.307Z,99.90
2023-04-11T11:46:14.450Z,99.90
2023-04-11T11:48:59.909Z,99.90
2023-04-11T11:51:29.040Z,99.90
2023-04-11T11:54:05.861Z,99.90
2023-04-11T11:56:34.656Z,99.90
2023-04-11T11:59:04.883Z,99.90
2023-04-11T12:01:34.718Z,99.90
2023-04-11T12:04:07.945Z,99.90
2023-04-11T12:06:36.825Z,99.90
2023-04-11T12:09:08.921Z,99.90
2023-04-11T12:11:42.389Z,99.90
2023-04-11T12:14:13.265Z,99.90
2023-04-11T12:16:41.999Z,99.90
2023-04-11T12:19:12.110Z,99.90
2023-04-11T12:21:41.048Z,99.90
2023-04-11T12:24:10.338Z,99.90
2023-04-11T12:26:45.603Z,99.90
2023-04-11T12:29:21.684Z,99.90
2023-04-11T12:31:50.821Z,99.90
2023-04-11T12:34:21.038Z,99.90
2023-04-11T12:36:49.858Z,99.90
2023-04-11T12:39:18.532Z,99.90
2023-04-11T12:41:47.212Z,99.90
2023-04-11T12:44:15.797Z,99.90
2023-04-11T12:46:44.404Z,99.90
2023-04-11T12:49:13.549Z,99.90
2023-04-11T12:51:45.045Z,99.90
2023-04-11T12:54:13.907Z,99.90
2023-04-11T12:56:42.625Z,99.90
2023-04-11T12:59:11.584Z,99.90
2023-04-11T13:01:40.584Z,99.90
2023-04-11T13:04:09.424Z,99.90
2023-04-11T13:06:38.548Z,98.50
2023-04-11T13:09:09.073Z,98.80
2023-04-11T13:11:37.761Z,98.30
2023-04-11T13:14:06.647Z,97.30
2023-04-11T13:16:35.685Z,98.60
2023-04-11T13:19:04.413Z,98.20
2023-04-11T13:21:33.244Z,95.70
2023-04-11T13:24:02.119Z,95.20
2023-04-11T13:26:32.974Z,94.40
2023-04-11T13:29:01.676Z,92.90
2023-04-11T13:31:30.589Z,91.80
2023-04-11T13:33:59.662Z,91.30
2023-04-11T13:36:28.435Z,91.40
2023-04-11T13:38:58.224Z,92.30
2023-04-11T13:41:27.242Z,93.00
2023-04-11T13:43:59.390Z,92.90
2023-04-11T13:46:28.285Z,91.60
2023-04-11T13:48:57.226Z,90.90
2023-04-11T13:51:27.372Z,91.30
2023-04-11T13:53:56.501Z,92.50
2023-04-11T13:56:25.236Z,90.50
2023-04-11T13:58:53.958Z,89.60
2023-04-11T14:01:24.353Z,89.00
2023-04-11T14:03:53.388Z,90.10
2023-04-11T14:06:22.620Z,89.30
2023-04-11T14:08:51.951Z,90.60
2023-04-11T14:11:20.745Z,90.50
2023-04-11T14:13:49.521Z,91.10
2023-04-11T14:16:18.627Z,90.70
2023-04-11T14:18:51.507Z,91.20
2023-04-11T14:21:20.574Z,90.50
2023-04-11T14:23:49.791Z,89.10
2023-04-11T14:26:18.679Z,86.60
2023-04-11T14:28:47.604Z,87.00
2023-04-11T14:31:18.357Z,86.90
2023-04-11T14:33:48.096Z,87.10
2023-04-11T14:36:18.559Z,85.60
2023-04-11T14:38:47.557Z,86.50
2023-04-11T14:41:16.444Z,84.40
2023-04-11T14:43:45.298Z,84.90
2023-04-11T14:46:14.175Z,84.70
2023-04-11T14:48:43.388Z,84.60
2023-04-11T14:51:12.447Z,84.70
2023-04-11T14:53:43.074Z,82.60
2023-04-11T14:56:11.956Z,82.30
2023-04-11T14:58:41.045Z,82.50
2023-04-11T15:01:10.004Z,83.00
2023-04-11T15:03:38.928Z,81.10
2023-04-11T15:06:09.328Z,80.40
2023-04-11T15:08:38.184Z,79.60
2023-04-11T15:11:08.872Z,81.30
2023-04-11T15:13:37.621Z,79.40
2023-04-11T15:16:08.440Z,78.20
2023-04-11T15:18:37.104Z,78.80
2023-04-11T15:21:06.740Z,80.20
2023-04-11T15:23:35.532Z,79.00
2023-04-11T15:26:05.407Z,80.30
2023-04-11T15:28:37.009Z,79.60
2023-04-11T15:31:08.329Z,80.90
2023-04-11T15:33:38.439Z,79.70
2023-04-11T15:36:08.643Z,80.90
2023-04-11T15:38:37.931Z,80.90
2023-04-11T15:41:07.707Z,79.70
2023-04-11T15:43:38.896Z,81.60
2023-04-11T15:46:08.011Z,80.30
2023-04-11T15:48:37.171Z,79.20
2023-04-11T15:51:11.375Z,79.60
2023-04-11T15:53:40.140Z,78.40
2023-04-11T15:56:09.827Z,78.60
2023-04-11T15:58:40.059Z,79.80
2023-04-11T16:01:21.157Z,79.20
2023-04-11T16:03:50.777Z,79.10
2023-04-11T16:06:20.333Z,80.30
2023-04-11T16:08:48.995Z,81.10
2023-04-11T16:11:17.952Z,80.20
2023-04-11T16:13:48.583Z,81.30
2023-04-11T16:16:17.459Z,81.40
2023-04-11T16:18:46.256Z,81.80
2023-04-11T16:21:18.097Z,82.00
2023-04-11T16:23:47.031Z,80.90
2023-04-11T16:26:16.303Z,82.80
2023-04-11T16:28:45.149Z,82.70
2023-04-11T16:31:22.016Z,82.60
2023-04-11T16:33:50.898Z,82.00
2023-04-11T16:36:20.551Z,82.80
2023-04-11T16:38:51.097Z,82.40
2023-04-11T16:41:20.054Z,82.70
2023-04-11T16:43:48.845Z,82.60
2023-04-11T16:46:19.524Z,82.90
2023-04-11T16:48:48.430Z,82.50
2023-04-11T16:51:18.547Z,83.80
2023-04-11T16:53:47.738Z,83.80
2023-04-11T16:56:17.013Z,83.50
2023-04-11T16:58:46.243Z,84.00
2023-04-11T17:01:15.528Z,85.50
2023-04-11T17:03:48.488Z,85.80
2023-04-11T17:06:18.687Z,86.10
2023-04-11T17:08:50.592Z,86.50
2023-04-11T17:11:19.574Z,87.70
2023-04-11T17:13:49.658Z,88.50
2023-04-11T17:16:18.979Z,90.00
2023-04-11T17:18:52.278Z,89.40
2023-04-11T17:21:21.032Z,90.10
2023-04-11T17:23:50.770Z,90.40
2023-04-11T17:26:20.312Z,90.40
2023-04-11T17:28:50.072Z,90.40
2023-04-11T17:31:19.927Z,90.10
2023-04-11T17:33:51.014Z,90.10
2023-04-11T17:36:23.466Z,88.60
2023-04-11T17:38:55.128Z,89.10
2023-04-11T17:41:24.244Z,89.70
2023-04-11T17:43:56.447Z,90.20
2023-04-11T17:46:25.521Z,89.90
2023-04-11T17:48:56.186Z,90.60
2023-04-11T17:51:29.291Z,90.90
2023-04-11T17:53:58.691Z,90.90
2023-04-11T17:56:28.005Z,91.00
2023-04-11T17:58:57.676Z,91.00
2023-04-11T18:01:32.665Z,91.30
2023-04-11T18:04:03.415Z,91.30
2023-04-11T18:06:34.589Z,91.70
2023-04-11T18:09:07.877Z,92.10
2023-04-11T18:11:37.209Z,93.20
2023-04-11T18:14:09.550Z,92.90
2023-04-11T18:16:39.269Z,93.00
2023-04-11T18:19:09.792Z,93.20
2023-04-11T18:21:40.129Z,93.50
2023-04-11T18:24:09.455Z,93.30
2023-04-11T18:26:40.626Z,93.90
2023-04-11T18:29:10.312Z,94.00
2023-04-11T18:31:42.269Z,94.80
2023-04-11T18:34:13.133Z,94.90
2023-04-11T18:36:43.570Z,95.40
2023-04-11T18:39:12.441Z,95.60
2023-04-11T18:41:41.492Z,96.30
2023-04-11T18:44:12.905Z,96.20
2023-04-11T18:46:43.818Z,97.10
2023-04-11T18:49:16.821Z,97.00
2023-04-11T18:51:46.902Z,97.20
2023-04-11T18:54:16.025Z,97.90
2023-04-11T18:56:47.687Z,97.70
2023-04-11T18:59:22.134Z,98.50
2023-04-11T19:01:54.630Z,99.00
2023-04-11T19:04:28.131Z,99.20
2023-04-11T19:06:57.373Z,99.90
2023-04-11T19:09:27.875Z,99.90
2023-04-11T19:11:57.473Z,99.90
2023-04-11T19:14:26.482Z,99.90
2023-04-11T19:16:55.791Z,99.90
2023-04-11T19:19:26.899Z,99.90
2023-04-11T19:21:56.067Z,99.90
2023-04-11T19:24:25.633Z,99.90
2023-04-11T19:26:54.489Z,99.90
2023-04-11T19:29:23.834Z,99.90
2023-04-11T19:31:55.657Z,99.90
2023-04-11T19:34:28.910Z,99.90
2023-04-11T19:36:58.366Z,99.90
2023-04-11T19:39:28.168Z,99.90
2023-04-11T19:41:59.983Z,99.90
2023-04-11T19:44:30.821Z,99.90
2023-04-11T19:47:02.400Z,99.90
2023-04-11T19:49:34.366Z,99.90
2023-04-11T19:52:04.045Z,99.90
2023-04-11T19:54:37.033Z,99.90
2023-04-11T19:57:09.321Z,99.90
2023-04-11T19:59:38.731Z,99.90
2023-04-11T20:02:08.049Z,99.90
2023-04-11T20:04:39.507Z,99.90
2023-04-11T20:07:09.986Z,99.90
2023-04-11T20:09:39.528Z,99.90
2023-04-11T20:12:11.040Z,99.90
2023-04-11T20:14:40.085Z,99.90
2023-04-11T20:17:10.952Z,99.90
2023-04-11T20:19:42.369Z,99.90
2023-04-11T20:22:15.000Z,99.90
2023-04-11T20:24:47.428Z,99.90
2023-04-11T20:27:18.313Z,99.90
2023-04-11T20:29:47.849Z,99.90
2023-04-11T20:32:16.975Z,99.90
2023-04-11T20:34:47.840Z,99.90
2023-04-11T20:37:19.722Z,99.90
2023-04-11T20:39:48.924Z,99.90
2023-04-11T20:42:17.891Z,99.90
2023-04-11T20:44:47.822Z,99.90
2023-04-11T20:47:16.849Z,99.90
2023-04-11T20:49:50.973Z,99.90
2023-04-11T20:52:20.532Z,99.90
2023-04-11T20:54:49.534Z,99.90
2023-04-11T20:57:18.406Z,99.90
2023-04-11T20:59:47.648Z,99.90
2023-04-11T21:02:16.735Z,99.90
2023-04-11T21:04:48.937Z,99.90
2023-04-11T21:07:17.865Z,99.90
2023-04-11T21:09:46.724Z,99.90
2023-04-11T21:12:15.724Z,99.90
2023-04-11T21:14:44.566Z,99.90
2023-04-11T21:17:13.419Z,99.90
2023-04-11T21:19:42.126Z,99.90
2023-04-11T21:22:13.675Z,99.90
2023-04-11T21:24:42.792Z,99.90
2023-04-11T21:27:11.616Z,99.90
2023-04-11T21:29:40.494Z,99.90
2023-04-11T21:32:09.695Z,99.90
2023-04-11T21:34:39.043Z,99.90
2023-04-11T21:37:08.012Z,99.90
2023-04-11T21:39:38.261Z,99.90
2023-04-11T21:42:09.562Z,99.90
2023-04-11T21:44:38.711Z,99.90
2023-04-11T21:47:08.053Z,99.90
2023-04-11T21:49:36.910Z,99.90
2023-04-11T21:52:06.386Z,99.90
2023-04-11T21:54:35.837Z,99.90
2023-04-11T21:57:06.239Z,99.90
2023-04-11T21:59:37.903Z,99.90
2023-04-11T22:02:07.965Z,99.90
2023-04-11T22:04:47.535Z,99.90
2023-04-11T22:07:25.471Z,99.90
2023-04-11T22:09:58.549Z,99.90
2023-04-11T22:12:28.975Z,99.90
2023-04-11T22:14:58.372Z,99.90
2023-04-11T22:17:30.476Z,99.90
2023-04-11T22:19:59.565Z,99.90
2023-04-11T22:22:30.327Z,99.90
2023-04-11T22:24:59.844Z,99.90
2023-04-11T22:27:30.228Z,99.90
2023-04-11T22:30:00.056Z,99.90
2023-04-11T22:32:30.315Z,99.90
2023-04-11T22:34:59.972Z,99.90
2023-04-11T22:37:28.953Z,99.90
2023-04-11T22:39:57.857Z,99.90
2023-04-11T22:42:26.939Z,99.90
2023-04-11T22:44:57.575Z,99.90
2023-04-11T22:47:28.838Z,99.90
2023-04-11T22:49:58.174Z,99.90
2023-04-11T22:52:30.377Z,99.90
2023-04-11T22:54:59.167Z,99.90
2023-04-11T22:57:28.167Z,99.90
2023-04-11T23:00:00.420Z,99.90
2023-04-11T23:02:32.014Z,99.90
2023-04-11T23:05:03.261Z,99.90
2023-04-11T23:07:33.142Z,99.90
2023-04-11T23:10:04.595Z,99.90
2023-04-11T23:12:33.658Z,99.90
2023-04-11T23:15:04.496Z,99.90
2023-04-11T23:17:33.450Z,99.90
2023-04-11T23:20:06.275Z,99.90
2023-04-11T23:22:35.007Z,99.90
2023-04-11T23:25:04.910Z,99.90
2023-04-11T23:27:34.406Z,99.90
2023-04-11T23:30:05.984Z,99.90
2023-04-11T23:32:34.809Z,99.90
2023-04-11T23:35:05.970Z,99.90
2023-04-11T23:37:34.620Z,99.90
2023-04-11T23:40:10.576Z,99.90
2023-04-11T23:42:39.589Z,99.90
2023-04-11T23:45:12.897Z,99.90
2023-04-11T23:47:41.717Z,99.90
2023-04-11T23:50:12.320Z,99.90
2023-04-11T23:52:41.062Z,99.90
2023-04-11T23:55:10.717Z,99.90
2023-04-11T23:57:39.372Z,99.90
